Time;durP1;ratioP1;P1;durP2;ratioP2;P2;SDS_P1;SDS_P2;PMS_P1;PMS_P2;Temp;Humidity;BMP_temperature;BMP_pressure;BME280_temperature;BME280_humidity;BME280_pressure;Samples;Min_cycle;Max_cycle;Signal;HPM_P1;HPM_P2
2022/09/03 00:04:10;;;;;;;1.83;1.50;;;18.30;55.90;;;;;;20674496;28;20238;-73
2022/09/03 00:14:19;;;;;;;4.30;1.90;;;18.20;56.20;;;;;;20680455;28;20230;-73
2022/09/03 00:24:24;;;;;;;2.63;2.00;;;18.10;56.90;;;;;;20675925;28;20234;-74
2022/09/03 00:34:33;;;;;;;3.70;2.07;;;18.00;57.70;;;;;;20680345;28;20298;-72
2022/09/03 00:44:47;;;;;;;3.50;1.97;;;17.90;57.80;;;;;;20673215;28;20292;-72
2022/09/03 00:55:12;;;;;;;2.07;1.80;;;17.90;57.70;;;;;;20669533;28;20205;-74
2022/09/03 01:05:39;;;;;;;2.00;1.63;;;17.90;57.80;;;;;;20669405;28;20241;-74
2022/09/03 01:16:05;;;;;;;2.57;1.70;;;17.80;58.10;;;;;;20655259;28;20743;-73
2022/09/03 01:26:29;;;;;;;7.20;1.80;;;17.60;58.80;;;;;;20673020;28;20289;-74
2022/09/03 01:37:01;;;;;;;4.20;1.80;;;17.50;59.30;;;;;;20688139;28;20568;-73
2022/09/03 01:47:49;;;;;;;2.23;1.70;;;17.50;59.50;;;;;;20696803;28;20328;-75
2022/09/03 01:57:57;;;;;;;2.30;1.90;;;17.40;59.80;;;;;;20701318;28;20223;-75
2022/09/03 02:08:04;;;;;;;3.10;2.00;;;17.30;60.30;;;;;;20698076;28;20248;-73
2022/09/03 02:18:16;;;;;;;5.57;1.97;;;17.30;60.60;;;;;;20703427;28;20252;-73
2022/09/03 02:28:18;;;;;;;2.70;1.70;;;17.10;60.80;;;;;;20698412;28;20329;-72
2022/09/03 02:38:25;;;;;;;2.07;1.83;;;17.00;61.10;;;;;;20695551;28;20207;-75
2022/09/03 02:48:27;;;;;;;3.60;1.60;;;17.00;61.10;;;;;;20687636;28;20233;-72
2022/09/03 02:58:30;;;;;;;1.87;1.60;;;16.90;61.30;;;;;;20677725;28;20674;-72
2022/09/03 03:08:33;;;;;;;1.90;1.70;;;16.70;61.60;;;;;;20677156;28;20392;-74
2022/09/03 03:18:35;;;;;;;2.77;1.97;;;16.60;61.90;;;;;;20676398;28;20329;-73
2022/09/03 03:28:37;;;;;;;3.13;2.00;;;16.50;62.30;;;;;;20675425;28;20574;-75
2022/09/03 03:38:40;;;;;;;2.43;2.00;;;16.50;62.70;;;;;;20674671;28;20216;-72
2022/09/03 03:48:42;;;;;;;1.80;1.60;;;16.40;63.20;;;;;;20674187;28;20240;-72
2022/09/03 03:58:44;;;;;;;4.43;2.10;;;16.40;63.40;;;;;;20674657;28;20212;-73
2022/09/03 04:08:47;;;;;;;2.17;1.70;;;16.40;64.70;;;;;;20672545;28;20606;-72
2022/09/03 04:18:51;;;;;;;2.40;2.07;;;16.50;64.30;;;;;;20672342;28;20241;-73
2022/09/03 04:28:53;;;;;;;3.07;1.83;;;16.40;64.60;;;;;;20670887;28;20241;-72
2022/09/03 04:38:58;;;;;;;4.70;2.00;;;16.50;65.50;;;;;;20670965;28;20219;-72
2022/09/03 04:49:00;;;;;;;2.83;1.97;;;16.60;65.80;;;;;;20671077;28;20247;-72
2022/09/03 04:59:05;;;;;;;2.10;1.80;;;16.70;65.80;;;;;;20669923;28;20291;-73
2022/09/03 05:09:06;;;;;;;2.80;1.80;;;16.80;65.40;;;;;;20670279;28;20238;-71
2022/09/03 05:19:09;;;;;;;3.47;2.60;;;16.90;64.50;;;;;;20668635;28;20236;-75
2022/09/03 05:29:11;;;;;;;2.17;1.70;;;17.10;63.90;;;;;;20670735;28;20567;-75
2022/09/03 05:39:13;;;;;;;4.37;1.83;;;17.20;63.50;;;;;;20673968;28;20230;-72
2022/09/03 05:49:15;;;;;;;4.53;1.90;;;17.30;63.20;;;;;;20667030;28;20241;-73
2022/09/03 05:59:16;;;;;;;2.40;1.90;;;17.40;62.80;;;;;;20666052;28;20211;-73
2022/09/03 06:09:20;;;;;;;1.63;1.53;;;17.50;62.60;;;;;;20665770;28;20733;-73
2022/09/03 06:19:24;;;;;;;5.17;2.00;;;17.60;62.40;;;;;;20667223;28;20247;-73
2022/09/03 06:29:26;;;;;;;3.83;2.33;;;17.70;62.20;;;;;;20679705;28;20241;-74
2022/09/03 06:39:28;;;;;;;2.07;1.87;;;17.90;61.90;;;;;;20679138;28;20659;-76
2022/09/03 06:49:30;;;;;;;2.90;2.00;;;18.00;61.70;;;;;;20679044;28;20299;-74
2022/09/03 06:59:32;;;;;;;4.70;1.77;;;18.00;61.70;;;;;;20678039;28;20573;-76
2022/09/03 07:09:37;;;;;;;2.60;1.90;;;18.10;61.80;;;;;;20676993;28;20250;-72
2022/09/03 07:19:38;;;;;;;5.77;1.90;;;18.30;61.90;;;;;;20676127;28;20235;-74
2022/09/03 07:29:41;;;;;;;5.97;1.80;;;18.50;61.90;;;;;;20674719;28;20651;-77
2022/09/03 07:39:43;;;;;;;4.00;1.80;;;18.80;61.80;;;;;;20674560;28;20207;-71
2022/09/03 07:49:45;;;;;;;2.57;1.63;;;19.10;61.20;;;;;;20674126;28;20232;-77
2022/09/03 07:59:49;;;;;;;3.90;1.80;;;19.40;60.70;;;;;;20672888;28;20643;-74
2022/09/03 08:09:50;;;;;;;2.20;1.73;;;19.80;59.80;;;;;;20671876;28;20249;-73
2022/09/03 08:19:52;;;;;;;3.10;1.80;;;20.20;59.20;;;;;;20671810;28;20324;-73
2022/09/03 08:29:54;;;;;;;4.07;2.00;;;20.30;58.80;;;;;;20670261;28;20240;-74
2022/09/03 08:39:56;;;;;;;6.63;1.90;;;20.30;58.60;;;;;;20669376;28;20216;-72
2022/09/03 08:50:22;;;;;;;4.87;2.40;;;20.50;58.30;;;;;;20668058;28;20638;-70
2022/09/03 09:00:26;;;;;;;6.07;1.97;;;20.70;58.10;;;;;;20668114;28;20694;-73
2022/09/03 09:10:44;;;;;;;3.90;1.80;;;21.00;57.80;;;;;;20667329;28;20252;-73
2022/09/03 09:20:55;;;;;;;3.73;1.77;;;21.20;57.50;;;;;;20667620;28;20714;-71
2022/09/03 09:30:58;;;;;;;3.57;2.13;;;21.40;57.20;;;;;;20666974;28;20240;-74
2022/09/03 09:41:18;;;;;;;7.53;1.93;;;21.50;56.80;;;;;;20666371;28;20662;-72
2022/09/03 09:51:30;;;;;;;4.77;2.17;;;21.70;56.80;;;;;;20666259;28;20242;-73
2022/09/03 10:01:33;;;;;;;3.00;1.90;;;21.90;56.60;;;;;;20681695;28;20206;-72
2022/09/03 10:11:39;;;;;;;5.83;4.07;;;22.00;56.50;;;;;;20681326;28;20272;-72
2022/09/03 10:22:11;;;;;;;3.13;2.10;;;22.20;56.20;;;;;;20681395;28;20210;-73
2022/09/03 10:32:38;;;;;;;2.73;1.83;;;22.50;55.80;;;;;;20680983;28;20699;-74
2022/09/03 10:42:59;;;;;;;8.60;2.03;;;22.60;55.70;;;;;;20680007;28;20288;-73
2022/09/03 10:53:15;;;;;;;7.53;2.10;;;22.70;55.60;;;;;;20678593;28;20247;-73
2022/09/03 11:03:37;;;;;;;4.43;2.00;;;22.90;55.40;;;;;;20677999;28;20670;-74
2022/09/03 11:13:47;;;;;;;4.47;2.87;;;23.10;55.30;;;;;;20676440;28;20699;-72
2022/09/03 11:24:05;;;;;;;2.90;2.47;;;23.20;55.40;;;;;;20676443;28;20679;-72
2022/09/03 11:34:13;;;;;;;2.83;2.13;;;23.10;55.60;;;;;;20675752;28;20718;-73
2022/09/03 11:44:38;;;;;;;3.37;2.10;;;23.10;56.00;;;;;;20674331;28;20225;-73
2022/09/03 11:54:52;;;;;;;4.27;2.70;;;23.60;55.70;;;;;;20673752;28;20288;-73
2022/09/03 12:05:15;;;;;;;5.57;2.37;;;23.70;55.60;;;;;;20656132;28;20695;-71
2022/09/03 12:15:38;;;;;;;3.40;2.90;;;23.70;55.70;;;;;;20671391;28;20239;-75
2022/09/03 12:25:47;;;;;;;11.93;3.20;;;23.90;55.90;;;;;;20671759;28;20229;-77
2022/09/03 12:36:00;;;;;;;3.67;2.90;;;23.80;56.50;;;;;;20671218;28;20213;-73
2022/09/03 12:46:01;;;;;;;5.73;2.43;;;23.20;58.10;;;;;;20669719;28;20292;-74
2022/09/03 12:56:13;;;;;;;2.47;2.00;;;22.80;58.90;;;;;;20653379;28;20292;-74
2022/09/03 13:06:22;;;;;;;7.57;2.20;;;22.90;59.40;;;;;;20669202;28;20265;-73
2022/09/03 13:16:45;;;;;;;5.40;2.30;;;22.80;60.20;;;;;;20667595;28;20236;-76
2022/09/03 13:27:16;;;;;;;3.90;2.10;;;23.20;59.80;;;;;;20666650;28;20597;-75
2022/09/03 13:37:29;;;;;;;3.10;2.27;;;23.40;58.90;;;;;;20624091;28;20213;-75
2022/09/03 13:58:35;;;;;;;11.37;7.27;;;23.50;59.30;;;;;;20665876;28;20214;-72
2022/09/03 14:09:03;;;;;;;9.73;8.13;;;23.60;58.70;;;;;;20665453;28;20756;-73
2022/09/03 14:19:22;;;;;;;6.13;2.83;;;24.00;58.50;;;;;;20665631;28;20237;-73
2022/09/03 14:29:31;;;;;;;2.97;2.10;;;24.30;57.90;;;;;;20664756;28;20242;-70
2022/09/03 14:39:50;;;;;;;6.60;2.80;;;25.00;57.00;;;;;;20665803;28;20572;-74
2022/09/03 14:50:17;;;;;;;8.13;2.77;;;24.90;56.70;;;;;;20679698;28;20300;-73
2022/09/03 15:00:20;;;;;;;4.77;2.27;;;24.80;56.60;;;;;;20678510;28;20202;-73
2022/09/03 15:10:28;;;;;;;5.33;2.47;;;24.80;56.60;;;;;;20677245;28;20245;-72
2022/09/03 15:21:00;;;;;;;3.57;2.90;;;25.10;56.00;;;;;;20677142;28;20241;-74
2022/09/03 15:31:10;;;;;;;8.10;2.53;;;25.10;56.00;;;;;;20676394;28;20234;-73
2022/09/03 15:41:32;;;;;;;3.40;2.80;;;25.40;55.10;;;;;;20675845;28;20222;-74
2022/09/03 15:51:48;;;;;;;4.10;2.90;;;24.80;55.80;;;;;;20673887;28;20593;-74
2022/09/03 16:02:09;;;;;;;6.43;3.87;;;24.50;56.30;;;;;;20674028;28;20217;-72
2022/09/03 16:12:27;;;;;;;5.50;3.00;;;24.30;56.70;;;;;;20672904;28;20364;-75
2022/09/03 16:22:32;;;;;;;5.03;2.77;;;24.20;57.00;;;;;;20674469;28;20210;-73
2022/09/03 16:33:02;;;;;;;5.97;3.10;;;24.10;57.20;;;;;;20674902;28;20582;-73
2022/09/03 16:43:19;;;;;;;5.47;3.20;;;23.90;57.30;;;;;;20670961;28;20216;-72
2022/09/03 16:54:03;;;;;;;2.60;2.20;;;23.80;57.60;;;;;;20671363;28;20769;-72
2022/09/03 17:04:44;;;;;;;5.03;2.00;;;23.70;58.10;;;;;;20671773;28;20214;-72
2022/09/03 17:15:15;;;;;;;2.80;2.27;;;23.60;58.80;;;;;;20672323;28;20229;-76
2022/09/03 17:25:38;;;;;;;6.53;2.43;;;23.50;59.40;;;;;;20670484;28;20242;-73
2022/09/03 17:36:07;;;;;;;6.43;3.00;;;23.40;59.50;;;;;;20670301;28;20213;-72
2022/09/03 17:46:09;;;;;;;3.10;2.20;;;23.30;59.60;;;;;;20672305;28;20237;-73
2022/09/03 17:56:23;;;;;;;2.50;1.90;;;23.20;59.90;;;;;;20669801;28;20551;-72
2022/09/03 18:06:41;;;;;;;2.17;1.90;;;23.10;60.50;;;;;;20666659;28;20592;-73
2022/09/03 18:17:04;;;;;;;9.93;3.57;;;23.00;63.10;;;;;;20672083;28;20259;-72
2022/09/03 20:13:16;;;;;;;2.60;2.40;;;20.10;94.50;;;;;;20672152;28;20297;-71
2022/09/03 20:23:32;;;;;;;4.27;2.70;;;20.10;95.10;;;;;;20671827;28;20231;-72
2022/09/03 20:33:52;;;;;;;7.30;2.70;;;20.00;95.60;;;;;;20671382;28;20707;-71
2022/09/03 20:44:15;;;;;;;3.90;2.83;;;19.80;96.10;;;;;;20651935;28;20209;-75
2022/09/03 20:54:25;;;;;;;4.47;2.60;;;19.80;96.70;;;;;;20669259;28;20243;-71
2022/09/03 21:05:01;;;;;;;6.60;2.70;;;19.70;97.10;;;;;;20669067;28;20212;-72
2022/09/03 21:15:21;;;;;;;3.93;2.50;;;19.60;97.40;;;;;;20667954;28;20293;-70
2022/09/03 21:25:33;;;;;;;4.43;3.10;;;19.40;97.50;;;;;;20667563;28;20247;-71
2022/09/03 21:35:41;;;;;;;3.23;2.70;;;19.30;97.80;;;;;;20666924;28;20211;-70
2022/09/03 21:46:14;;;;;;;5.33;2.53;;;19.20;97.90;;;;;;20667044;28;20239;-72
2022/09/03 21:56:57;;;;;;;3.83;2.70;;;19.10;98.20;;;;;;20677819;28;20265;-73
2022/09/03 22:07:04;;;;;;;2.77;2.50;;;19.00;98.40;;;;;;20682135;28;20237;-73
2022/09/03 22:17:16;;;;;;;3.90;2.70;;;18.90;98.40;;;;;;20681990;28;20242;-72
2022/09/03 22:27:25;;;;;;;3.20;2.80;;;18.80;98.50;;;;;;20681066;28;20230;-72
2022/09/03 22:37:40;;;;;;;2.80;2.60;;;18.80;98.60;;;;;;20683689;28;20625;-72
2022/09/03 22:48:22;;;;;;;3.47;2.70;;;18.60;98.70;;;;;;20679626;28;20244;-72
2022/09/03 22:58:32;;;;;;;5.30;2.80;;;18.60;99.20;;;;;;20678452;28;20216;-73
2022/09/03 23:08:40;;;;;;;4.83;2.80;;;18.50;98.90;;;;;;20659292;28;20230;-73
2022/09/03 23:18:45;;;;;;;3.60;2.60;;;18.50;99.00;;;;;;20677013;28;20234;-71
2022/09/03 23:29:01;;;;;;;3.33;2.67;;;18.40;99.00;;;;;;20677121;28;20272;-72
2022/09/03 23:39:32;;;;;;;3.27;2.97;;;18.40;99.20;;;;;;20675307;28;20222;-71
2022/09/03 23:49:42;;;;;;;3.50;2.93;;;18.30;99.00;;;;;;20674767;28;20242;-72
